Time;durP1;ratioP1;P1;durP2;ratioP2;P2;SDS_P1;SDS_P2;PMS_P1;PMS_P2;Temp;Humidity;BMP_temperature;BMP_pressure;BME280_temperature;BME280_humidity;BME280_pressure;Samples;Min_cycle;Max_cycle;Signal;HPM_P1;HPM_P2
2022/11/12 00:00:30;;;;;;;5.00;2.97;;;6.60;99.90;;;;;;5060394;28;20021;-82
2022/11/12 00:02:57;;;;;;;4.85;2.78;;;6.60;99.90;;;;;;5043511;28;20472;-82
2022/11/12 00:05:23;;;;;;;5.85;2.88;;;6.50;99.90;;;;;;5060498;28;20025;-81
2022/11/12 00:07:48;;;;;;;5.30;3.17;;;6.50;99.90;;;;;;5059097;28;20037;-82
2022/11/12 00:10:15;;;;;;;6.10;3.25;;;6.50;99.90;;;;;;5058242;28;20125;-81
2022/11/12 00:12:41;;;;;;;5.85;2.88;;;6.50;99.90;;;;;;5040520;28;20371;-81
2022/11/12 00:15:07;;;;;;;5.40;3.20;;;6.50;99.90;;;;;;5057116;28;20097;-82
2022/11/12 00:17:32;;;;;;;6.38;3.55;;;6.50;99.90;;;;;;5058673;28;20104;-81
2022/11/12 00:19:58;;;;;;;11.80;3.67;;;6.40;99.90;;;;;;5040972;28;20061;-81
2022/11/12 00:22:24;;;;;;;5.63;2.88;;;6.30;99.90;;;;;;5059297;28;20061;-82
2022/11/12 00:24:49;;;;;;;6.03;4.05;;;6.30;99.90;;;;;;5063099;28;20353;-82
2022/11/12 00:27:15;;;;;;;4.13;3.08;;;6.20;99.90;;;;;;5045239;28;20033;-82
2022/11/12 00:29:41;;;;;;;5.53;2.95;;;6.20;99.90;;;;;;5052550;28;20033;-83
2022/11/12 00:32:07;;;;;;;3.42;2.70;;;6.10;99.90;;;;;;5068464;28;20104;-81
2022/11/12 00:34:33;;;;;;;3.95;2.97;;;6.10;99.90;;;;;;5062451;28;20021;-82
2022/11/12 00:37:00;;;;;;;5.53;3.20;;;6.00;99.90;;;;;;5067874;28;20079;-81
2022/11/12 00:39:26;;;;;;;5.40;2.45;;;6.00;99.90;;;;;;5069671;28;20029;-72
2022/11/12 00:41:52;;;;;;;6.75;2.80;;;5.90;99.90;;;;;;5063039;28;20029;-75
2022/11/12 00:46:53;;;;;;;12.23;3.40;;;5.80;99.90;;;;;;6033883;22;20020;-83
2022/11/12 00:54:30;;;;;;;6.85;2.75;;;5.60;99.90;;;;;;6113574;22;19928;-82
2022/11/12 00:56:55;;;;;;;5.65;3.03;;;6.60;99.90;;;;;;5039055;28;20233;-84
2022/11/12 00:59:21;;;;;;;2.92;2.55;;;7.60;99.90;;;;;;5623769;22;20107;-84
2022/11/12 01:01:47;;;;;;;4.60;2.97;;;6.80;99.90;;;;;;5098962;28;20021;-83
2022/11/12 01:04:13;;;;;;;3.20;2.55;;;6.00;99.90;;;;;;5098881;28;20021;-84
2022/11/12 01:06:40;;;;;;;6.88;3.15;;;5.60;99.90;;;;;;5271929;22;20037;-83
2022/11/12 01:09:06;;;;;;;4.78;3.15;;;5.00;99.90;;;;;;5058733;28;20073;-84
2022/11/12 01:11:32;;;;;;;6.30;3.13;;;5.70;99.90;;;;;;5039107;28;20030;-84
2022/11/12 01:14:01;;;;;;;4.20;2.47;;;6.00;99.90;;;;;;5037711;28;20017;-83
2022/11/12 01:16:30;;;;;;;7.70;3.25;;;5.80;99.90;;;;;;5055469;28;20033;-84
2022/11/12 01:18:57;;;;;;;;;;;5.40;99.90;;;;;;5058902;28;20006;-84
2022/11/12 01:21:26;;;;;;;5.30;2.95;;;6.40;99.90;;;;;;5038981;28;19972;-84
2022/11/12 01:23:52;;;;;;;6.45;3.30;;;6.20;99.90;;;;;;5058845;28;20053;-84
2022/11/12 01:26:21;;;;;;;3.97;3.00;;;6.30;99.90;;;;;;5037216;28;20033;-84
2022/11/12 01:28:47;;;;;;;4.50;2.85;;;5.80;99.90;;;;;;5038564;28;20038;-83
2022/11/12 01:31:17;;;;;;;6.07;3.83;;;6.50;99.90;;;;;;5054705;28;20017;-85
2022/11/12 01:33:45;;;;;;;7.45;2.72;;;5.90;99.90;;;;;;5058905;28;20079;-84
2022/11/12 01:36:12;;;;;;;4.25;2.70;;;7.00;99.90;;;;;;5038386;28;20014;-83
2022/11/12 01:38:40;;;;;;;5.13;2.83;;;6.00;99.90;;;;;;5041201;28;20056;-81
2022/11/12 01:41:07;;;;;;;7.07;2.83;;;6.40;99.90;;;;;;5038629;28;20006;-84
2022/11/12 01:43:34;;;;;;;4.75;2.80;;;7.70;99.90;;;;;;5057296;28;20037;-83
2022/11/12 01:46:03;;;;;;;5.00;2.53;;;6.20;99.90;;;;;;5058573;28;20041;-84
2022/11/12 01:48:33;;;;;;;6.60;2.42;;;6.40;99.90;;;;;;5121115;22;20054;-84
2022/11/12 01:51:02;;;;;;;3.78;3.17;;;7.40;99.90;;;;;;5038244;28;20061;-84
2022/11/12 01:53:33;;;;;;;3.40;2.15;;;6.40;99.90;;;;;;5056553;28;20024;-83
2022/11/12 01:56:01;;;;;;;5.75;2.20;;;6.80;99.90;;;;;;5038232;28;20021;-84
2022/11/12 02:01:02;;;;;;;3.38;1.83;;;5.90;99.90;;;;;;5375187;22;20288;-84
2022/11/12 02:03:28;;;;;;;3.45;2.30;;;5.50;99.90;;;;;;5041454;28;20057;-84
2022/11/12 02:06:00;;;;;;;3.72;1.90;;;6.50;99.90;;;;;;5041382;28;20036;-83
2022/11/12 02:08:28;;;;;;;2.97;2.13;;;7.50;99.90;;;;;;5041145;28;20041;-84
2022/11/12 02:10:53;;;;;;;3.55;2.58;;;6.20;99.90;;;;;;5040827;28;20035;-84
2022/11/12 02:16:06;;;;;;;3.92;2.20;;;6.40;99.90;;;;;;5057511;28;20040;-84
2022/11/12 02:18:32;;;;;;;3.20;2.58;;;6.70;99.90;;;;;;5039719;28;20052;-84
2022/11/12 02:21:06;;;;;;;3.35;2.00;;;5.70;99.90;;;;;;5040166;28;20096;-84
2022/11/12 02:23:32;;;;;;;4.55;2.20;;;5.90;99.90;;;;;;5057952;28;20022;-84
2022/11/12 02:26:01;;;;;;;2.58;2.05;;;6.60;99.90;;;;;;5040675;28;20048;-84
2022/11/12 02:28:30;;;;;;;3.17;2.30;;;5.70;99.90;;;;;;5056924;28;20041;-84
2022/11/12 02:30:56;;;;;;;3.55;2.72;;;7.50;99.90;;;;;;5056159;28;20018;-84
2022/11/12 02:33:22;;;;;;;4.53;2.00;;;1.90;99.90;;;;;;5039195;28;20551;-83
2022/11/12 02:35:48;;;;;;;3.75;2.58;;;5.50;99.90;;;;;;5037827;28;20025;-84
2022/11/12 02:38:13;;;;;;;3.33;2.35;;;5.10;99.90;;;;;;5056965;28;20082;-82
2022/11/12 02:40:39;;;;;;;3.78;2.10;;;5.40;99.90;;;;;;5057469;28;20048;-83
2022/11/12 02:43:05;;;;;;;3.17;1.70;;;5.60;99.90;;;;;;5055938;28;20099;-82
2022/11/12 02:45:31;;;;;;;5.45;2.03;;;5.70;99.90;;;;;;5040644;28;20025;-83
2022/11/12 02:47:57;;;;;;;4.32;2.00;;;5.50;99.90;;;;;;5041602;28;20035;-83
2022/11/12 02:50:22;;;;;;;2.17;1.98;;;5.10;99.90;;;;;;5040685;28;20056;-82
2022/11/12 02:52:48;;;;;;;2.42;1.80;;;5.50;99.90;;;;;;5057444;28;20485;-83
2022/11/12 02:55:14;;;;;;;3.42;2.10;;;5.70;99.90;;;;;;5040972;28;20010;-83
2022/11/12 02:57:40;;;;;;;3.30;2.03;;;5.70;99.90;;;;;;5057954;28;20014;-83
2022/11/12 03:00:10;;;;;;;3.63;2.50;;;5.50;99.90;;;;;;5039820;28;20046;-83
2022/11/12 03:02:41;;;;;;;3.00;2.08;;;5.20;99.90;;;;;;5057215;28;20021;-83
2022/11/12 03:05:09;;;;;;;4.38;2.25;;;5.80;99.90;;;;;;5040151;28;20044;-83
2022/11/12 03:07:35;;;;;;;2.43;1.60;;;5.20;99.90;;;;;;5039519;28;20492;-83
2022/11/12 03:10:01;;;;;;;1.95;1.38;;;5.40;99.90;;;;;;5039591;28;20264;-83
2022/11/12 03:12:26;;;;;;;1.50;1.40;;;6.20;99.90;;;;;;5038838;28;20034;-83
2022/11/12 03:14:52;;;;;;;2.47;1.42;;;5.80;99.90;;;;;;5037908;28;20072;-82
2022/11/12 03:17:17;;;;;;;2.95;1.10;;;5.90;99.90;;;;;;5054708;28;20041;-83
2022/11/12 03:19:43;;;;;;;2.35;1.50;;;5.90;99.90;;;;;;5037863;28;20093;-84
2022/11/12 03:22:09;;;;;;;1.30;1.20;;;5.90;99.90;;;;;;5038080;28;20030;-83
2022/11/12 03:24:34;;;;;;;1.90;0.80;;;6.50;99.90;;;;;;5037765;28;20036;-83
2022/11/12 03:27:00;;;;;;;1.95;0.93;;;7.10;99.90;;;;;;5054874;28;20026;-83
2022/11/12 03:29:26;;;;;;;1.25;0.75;;;6.30;99.90;;;;;;5054110;28;20029;-83
2022/11/12 03:31:51;;;;;;;1.58;0.82;;;6.60;99.90;;;;;;5055164;28;20060;-83
2022/11/12 03:34:17;;;;;;;1.98;0.63;;;6.70;99.90;;;;;;5037175;28;20044;-83
2022/11/12 03:36:43;;;;;;;0.68;0.60;;;7.30;99.90;;;;;;5038218;28;20048;-84
2022/11/12 03:39:08;;;;;;;3.17;1.10;;;7.00;99.90;;;;;;5038397;28;20025;-83
2022/11/12 03:41:34;;;;;;;2.13;0.90;;;7.90;99.90;;;;;;5036078;28;20036;-83
2022/11/12 03:44:00;;;;;;;2.28;0.85;;;7.30;99.90;;;;;;5053156;28;20081;-84
2022/11/12 03:46:25;;;;;;;1.00;0.80;;;7.50;99.90;;;;;;5052970;28;20021;-84
2022/11/12 03:48:52;;;;;;;1.45;0.80;;;7.40;99.90;;;;;;5034347;28;20025;-83
2022/11/12 03:51:20;;;;;;;0.70;0.60;;;7.10;99.90;;;;;;5050698;28;20029;-83
2022/11/12 03:53:45;;;;;;;1.92;1.00;;;8.30;99.90;;;;;;5048012;28;20056;-83
2022/11/12 03:56:11;;;;;;;2.13;0.88;;;7.00;99.90;;;;;;5046784;28;20036;-84
2022/11/12 03:58:37;;;;;;;5.15;0.95;;;7.00;99.90;;;;;;5047550;28;20031;-83
2022/11/12 04:01:03;;;;;;;5.53;1.00;;;7.30;99.90;;;;;;5049084;28;20047;-83
2022/11/12 04:03:28;;;;;;;3.80;0.85;;;7.40;99.90;;;;;;5048505;28;20499;-83
2022/11/12 04:08:38;;;;;;;1.88;1.15;;;6.90;99.90;;;;;;5048020;28;20134;-83
2022/11/12 04:11:06;;;;;;;2.33;1.08;;;6.60;99.90;;;;;;5029522;28;20049;-83
2022/11/12 04:13:32;;;;;;;3.15;0.90;;;6.60;99.90;;;;;;5029046;28;20028;-83
2022/11/12 04:21:55;;;;;;;0.80;0.80;;;6.20;99.90;;;;;;5053116;28;20090;-84
2022/11/12 04:27:33;;;;;;;1.50;1.00;;;6.20;99.90;;;;;;5051034;28;20035;-84
2022/11/12 04:30:15;;;;;;;2.60;0.88;;;6.30;99.90;;;;;;5052630;28;20045;-83
2022/11/12 04:32:53;;;;;;;1.33;1.00;;;6.30;99.90;;;;;;5055491;28;20012;-84
2022/11/12 04:35:21;;;;;;;1.25;0.98;;;6.30;99.90;;;;;;5037134;28;20048;-84
2022/11/12 04:37:47;;;;;;;0.98;0.90;;;6.20;99.90;;;;;;5038486;28;20028;-83
2022/11/12 04:45:45;;;;;;;2.85;1.00;;;6.20;99.90;;;;;;5057051;28;20052;-84
2022/11/12 04:48:10;;;;;;;1.10;1.00;;;6.10;99.90;;;;;;5040142;28;20024;-84
2022/11/12 04:50:36;;;;;;;1.13;0.90;;;6.10;99.90;;;;;;5055673;28;20045;-84
2022/11/12 04:53:02;;;;;;;1.63;0.90;;;6.00;99.90;;;;;;5291450;22;20065;-85
2022/11/12 04:55:28;;;;;;;1.42;1.08;;;6.10;99.90;;;;;;5057105;28;20069;-82
2022/11/12 04:57:54;;;;;;;3.20;0.90;;;6.10;99.90;;;;;;5037273;28;20037;-84
2022/11/12 05:00:20;;;;;;;1.17;1.00;;;5.90;99.90;;;;;;5053860;28;20077;-84
2022/11/12 05:02:47;;;;;;;3.80;1.58;;;6.00;99.90;;;;;;5056424;28;20017;-84
2022/11/12 05:05:13;;;;;;;1.40;1.08;;;6.50;99.90;;;;;;5056702;28;20028;-83
2022/11/12 05:07:39;;;;;;;3.65;0.93;;;5.80;99.90;;;;;;5056096;28;20436;-83
2022/11/12 05:10:05;;;;;;;3.58;0.82;;;6.20;99.90;;;;;;5054930;28;20032;-83
2022/11/12 05:12:31;;;;;;;1.50;1.02;;;5.70;99.90;;;;;;5035591;28;20049;-83
2022/11/12 05:14:57;;;;;;;4.93;1.38;;;5.60;99.90;;;;;;5054557;28;20049;-83
2022/11/12 05:17:22;;;;;;;2.38;1.13;;;5.90;99.90;;;;;;5054963;28;20040;-83
2022/11/12 05:19:48;;;;;;;1.33;1.10;;;5.40;99.90;;;;;;5055310;28;20036;-83
2022/11/12 05:22:14;;;;;;;2.88;1.30;;;5.30;99.90;;;;;;5055275;28;20012;-84
2022/11/12 05:24:41;;;;;;;4.22;1.42;;;5.30;99.90;;;;;;5055921;28;20022;-84
2022/11/12 05:27:17;;;;;;;4.90;2.55;;;3.70;99.90;;;;;;5034689;28;20033;-84
2022/11/12 05:29:43;;;;;;;4.13;1.25;;;6.00;99.90;;;;;;5038486;28;20034;-83
2022/11/12 05:32:12;;;;;;;3.80;1.33;;;3.90;99.90;;;;;;5036058;28;20042;-83
2022/11/12 05:34:37;;;;;;;;;;;5.10;99.90;;;;;;5054276;28;20026;-83
2022/11/12 05:37:04;;;;;;;1.98;1.25;;;4.70;99.90;;;;;;5034912;28;19917;-83
2022/11/12 05:39:30;;;;;;;1.95;1.58;;;5.30;99.90;;;;;;5053775;28;20021;-83
2022/11/12 05:41:56;;;;;;;4.10;1.50;;;4.80;99.90;;;;;;5055096;28;20028;-83
2022/11/12 05:44:22;;;;;;;3.92;2.05;;;4.80;99.90;;;;;;5055998;28;20029;-83
2022/11/12 05:46:49;;;;;;;5.57;1.83;;;5.30;99.90;;;;;;5054421;28;20025;-83
2022/11/12 05:49:15;;;;;;;9.00;2.45;;;4.50;99.90;;;;;;5136259;22;20511;-84
2022/11/12 05:51:41;;;;;;;3.75;2.20;;;4.50;99.90;;;;;;5037603;28;20014;-85
2022/11/12 05:54:07;;;;;;;3.08;2.28;;;4.90;99.90;;;;;;5033796;28;20093;-84
2022/11/12 05:56:33;;;;;;;2.58;2.20;;;6.00;99.90;;;;;;5039129;28;20036;-83
2022/11/12 05:59:01;;;;;;;3.40;2.00;;;5.00;99.90;;;;;;5053482;28;20021;-83
2022/11/12 06:01:27;;;;;;;6.57;2.20;;;5.30;99.90;;;;;;5052945;28;20021;-83
2022/11/12 06:03:52;;;;;;;5.32;3.05;;;4.60;99.90;;;;;;5054152;28;20056;-84
2022/11/12 06:06:18;;;;;;;4.43;2.83;;;5.40;99.90;;;;;;5036179;28;20033;-83
2022/11/12 06:08:44;;;;;;;6.30;3.03;;;4.70;99.90;;;;;;5047915;28;20048;-78
2022/11/12 06:11:10;;;;;;;3.80;2.72;;;4.50;99.90;;;;;;5037580;28;20389;-81
2022/11/12 06:17:17;;;;;;;7.53;2.35;;;4.50;99.90;;;;;;5039677;28;20029;-78
2022/11/12 06:23:33;;;;;;;4.50;2.30;;;4.60;99.90;;;;;;5040010;28;20484;-80
2022/11/12 06:29:26;;;;;;;7.60;2.85;;;4.60;99.90;;;;;;5038844;28;20095;-78
2022/11/12 06:32:11;;;;;;;2.78;1.90;;;4.50;99.90;;;;;;5021124;28;20064;-76
2022/11/12 06:34:37;;;;;;;4.10;2.40;;;4.50;99.90;;;;;;5038991;28;20041;-77
2022/11/12 06:37:03;;;;;;;4.20;2.72;;;4.60;99.90;;;;;;5038456;28;20033;-76
2022/11/12 06:39:43;;;;;;;4.97;2.70;;;4.60;99.90;;;;;;5020473;28;20040;-76
2022/11/12 06:42:09;;;;;;;6.18;2.83;;;4.60;99.90;;;;;;5020013;28;20034;-75
2022/11/12 06:44:35;;;;;;;5.35;2.92;;;4.70;99.90;;;;;;5037343;28;20025;-75
2022/11/12 06:47:30;;;;;;;3.72;2.45;;;4.70;99.90;;;;;;5019511;28;20029;-76
2022/11/12 06:49:56;;;;;;;5.65;2.67;;;4.80;99.90;;;;;;5015954;28;20133;-76
2022/11/12 07:06:14;;;;;;;5.65;2.78;;;5.50;99.90;;;;;;5020465;28;20061;-78
2022/11/12 07:15:55;;;;;;;7.13;3.67;;;5.90;99.90;;;;;;5025333;28;20030;-77
2022/11/12 07:18:21;;;;;;;5.75;3.20;;;6.10;99.90;;;;;;5020676;28;20097;-58
2022/11/12 07:20:46;;;;;;;4.82;3.38;;;6.30;99.90;;;;;;5016334;28;20084;-78
2022/11/12 07:23:12;;;;;;;4.75;3.20;;;6.30;99.90;;;;;;5020189;28;20061;-79
2022/11/12 07:25:37;;;;;;;6.03;2.60;;;6.40;99.90;;;;;;5019479;28;20061;-78
2022/11/12 07:28:03;;;;;;;5.65;3.42;;;6.50;99.90;;;;;;5020105;28;20396;-79
2022/11/12 07:30:29;;;;;;;4.15;2.88;;;6.60;99.90;;;;;;5021505;28;20100;-78
2022/11/12 07:32:57;;;;;;;4.82;3.30;;;6.80;99.90;;;;;;5018477;28;20036;-76
2022/11/12 07:35:22;;;;;;;12.75;6.22;;;7.30;99.90;;;;;;5112295;22;20037;-81
2022/11/12 07:37:48;;;;;;;6.97;4.22;;;7.40;99.90;;;;;;5024352;28;20033;-79
2022/11/12 07:40:14;;;;;;;5.00;3.38;;;7.60;99.90;;;;;;5021661;28;20033;-77
2022/11/12 07:42:39;;;;;;;5.47;3.45;;;7.80;99.90;;;;;;5019687;28;20030;-78
2022/11/12 07:45:06;;;;;;;4.90;3.55;;;8.10;99.90;;;;;;5021303;28;20471;-79
2022/11/12 07:47:32;;;;;;;4.68;3.63;;;8.40;99.90;;;;;;5018331;28;20037;-76
2022/11/12 07:49:57;;;;;;;8.15;3.13;;;8.50;99.90;;;;;;5018395;28;20120;-75
2022/11/12 07:52:23;;;;;;;5.90;3.00;;;8.70;99.90;;;;;;5037382;28;20373;-77
2022/11/12 07:54:49;;;;;;;4.57;3.17;;;8.80;99.90;;;;;;5018398;28;20026;-78
2022/11/12 07:57:16;;;;;;;4.32;3.05;;;9.10;99.90;;;;;;5018703;28;20039;-77
2022/11/12 08:06:31;;;;;;;4.15;3.10;;;10.00;99.90;;;;;;5034715;28;20033;-79
2022/11/12 08:09:01;;;;;;;4.25;2.83;;;10.70;99.90;;;;;;5017519;28;20388;-80
2022/11/12 08:11:27;;;;;;;4.05;2.50;;;11.10;99.90;;;;;;5017274;28;20033;-79
2022/11/12 08:13:53;;;;;;;4.35;3.35;;;11.50;99.90;;;;;;5017175;28;20026;-77
2022/11/12 08:16:19;;;;;;;2.80;2.20;;;11.90;99.90;;;;;;5017658;28;20029;-77
2022/11/12 08:18:45;;;;;;;7.50;2.03;;;12.50;99.90;;;;;;5034562;28;20021;-77
2022/11/12 08:21:13;;;;;;;3.40;2.28;;;12.90;99.90;;;;;;5017067;28;20469;-76
2022/11/12 08:23:39;;;;;;;1.90;1.30;;;13.20;99.90;;;;;;5034744;28;20072;-75
2022/11/12 08:26:07;;;;;;;2.35;1.02;;;13.40;99.90;;;;;;5016961;28;20057;-77
2022/11/12 08:28:35;;;;;;;6.78;1.30;;;13.60;99.90;;;;;;5034569;28;20072;-75
2022/11/12 08:31:13;;;;;;;1.15;0.80;;;14.00;99.90;;;;;;5034692;28;20096;-77
2022/11/12 08:33:39;;;;;;;2.20;0.90;;;14.10;99.90;;;;;;5034206;28;20036;-79
2022/11/12 08:36:07;;;;;;;3.45;1.02;;;14.20;99.40;;;;;;5033642;28;20408;-57
2022/11/12 08:38:33;;;;;;;1.83;1.15;;;14.30;98.90;;;;;;5034213;28;20041;-80
2022/11/12 08:41:00;;;;;;;1.05;0.93;;;14.50;97.10;;;;;;5017396;28;20025;-83
2022/11/12 08:43:26;;;;;;;1.13;0.80;;;14.50;96.90;;;;;;5017973;28;20103;-85
2022/11/12 08:45:51;;;;;;;3.00;0.90;;;14.60;94.50;;;;;;5017147;28;20462;-81
2022/11/12 08:48:17;;;;;;;1.00;1.00;;;14.70;95.00;;;;;;5034570;28;20461;-80
2022/11/12 08:50:43;;;;;;;1.30;1.20;;;14.70;93.30;;;;;;5016668;28;20033;-77
2022/11/12 08:53:11;;;;;;;1.70;1.10;;;14.60;92.70;;;;;;5016660;28;20053;-78
2022/11/12 08:55:37;;;;;;;1.55;0.80;;;14.70;91.70;;;;;;5033911;28;20025;-78
2022/11/12 08:58:03;;;;;;;1.25;0.60;;;14.90;91.10;;;;;;5034371;28;20037;-75
2022/11/12 09:00:31;;;;;;;1.02;0.60;;;15.10;90.50;;;;;;5034208;28;20107;-76
2022/11/12 09:03:01;;;;;;;0.70;0.60;;;15.30;89.40;;;;;;5033872;28;20034;-78
2022/11/12 09:05:27;;;;;;;1.58;0.80;;;15.50;89.50;;;;;;5034180;28;20025;-78
2022/11/12 09:08:08;;;;;;;1.48;0.60;;;15.70;85.40;;;;;;5016152;28;20037;-76
2022/11/12 09:10:34;;;;;;;0.95;0.70;;;15.90;84.40;;;;;;5034579;28;20030;-79
2022/11/12 09:13:00;;;;;;;1.27;0.70;;;16.00;82.40;;;;;;5016256;28;20079;-78
2022/11/12 09:15:27;;;;;;;2.63;0.90;;;16.20;82.20;;;;;;5016514;28;20528;-78
2022/11/12 09:18:02;;;;;;;1.15;0.77;;;16.60;82.40;;;;;;5016283;28;20057;-79
2022/11/12 09:20:29;;;;;;;2.75;0.70;;;16.80;79.00;;;;;;5035137;28;20071;-78
2022/11/12 09:23:00;;;;;;;1.40;0.80;;;17.00;78.60;;;;;;5034734;28;20519;-86
2022/11/12 09:25:25;;;;;;;0.50;0.50;;;17.10;76.30;;;;;;5016779;28;20097;-81
2022/11/12 09:27:51;;;;;;;1.40;0.60;;;17.30;74.70;;;;;;5016587;28;20044;-83
2022/11/12 09:30:17;;;;;;;1.38;0.80;;;17.40;72.50;;;;;;5016434;28;20033;-82
2022/11/12 09:32:43;;;;;;;1.20;0.60;;;17.70;71.20;;;;;;5034198;28;20091;-79
2022/11/12 09:35:08;;;;;;;0.50;0.50;;;17.80;69.80;;;;;;5033812;28;20032;-80
2022/11/12 09:37:36;;;;;;;1.00;0.65;;;17.60;69.10;;;;;;5016498;28;20025;-80
2022/11/12 09:40:02;;;;;;;0.65;0.65;;;17.50;69.30;;;;;;5016059;28;20029;-79
2022/11/12 09:42:28;;;;;;;1.10;0.40;;;17.50;69.20;;;;;;5033836;28;20536;-82
2022/11/12 09:45:00;;;;;;;2.95;0.75;;;17.70;68.30;;;;;;5033896;28;20512;-81
2022/11/12 09:47:32;;;;;;;2.38;0.73;;;17.60;68.70;;;;;;5037670;28;20098;-79
2022/11/12 09:50:07;;;;;;;0.50;0.50;;;17.40;68.30;;;;;;5020312;28;20381;-83
2022/11/12 09:52:35;;;;;;;1.30;1.17;;;17.00;68.60;;;;;;5020359;28;20052;-81
2022/11/12 09:55:23;;;;;;;3.28;0.75;;;16.90;69.40;;;;;;5020570;28;20030;-84
2022/11/12 09:57:48;;;;;;;1.67;0.75;;;17.00;69.50;;;;;;5037715;28;20025;-84
2022/11/12 10:00:19;;;;;;;1.20;0.95;;;17.20;69.80;;;;;;5037971;28;20021;-83
2022/11/12 10:02:54;;;;;;;1.38;0.70;;;17.40;69.60;;;;;;5020168;28;20021;-79
2022/11/12 10:05:41;;;;;;;1.05;0.80;;;17.50;69.10;;;;;;5037832;28;20075;-79
2022/11/12 10:08:35;;;;;;;1.85;0.80;;;17.60;68.70;;;;;;5019942;28;20366;-80
2022/11/12 10:12:30;;;;;;;1.17;1.02;;;17.70;67.00;;;;;;5037337;28;20389;-80
2022/11/12 10:14:47;;;;;;;1.52;1.10;;;17.40;67.00;;;;;;5037463;28;20025;-85
2022/11/12 10:17:22;;;;;;;1.15;0.68;;;17.20;68.40;;;;;;5019694;28;20041;-80
2022/11/12 10:19:50;;;;;;;1.08;0.90;;;17.30;67.90;;;;;;5019559;28;20033;-79
2022/11/12 10:22:48;;;;;;;3.55;0.93;;;17.40;67.90;;;;;;5037156;28;20030;-82
2022/11/12 10:25:17;;;;;;;1.92;0.90;;;17.70;67.30;;;;;;4952485;28;20037;-81
2022/11/12 10:27:43;;;;;;;1.02;0.70;;;17.80;66.60;;;;;;5019442;28;20117;-80
2022/11/12 10:30:20;;;;;;;0.68;0.63;;;18.00;65.30;;;;;;5037359;28;20037;-80
2022/11/12 10:32:47;;;;;;;2.60;0.98;;;18.30;64.30;;;;;;5019524;28;20025;-81
2022/11/12 10:35:16;;;;;;;2.33;1.13;;;18.70;63.90;;;;;;5019738;28;20508;-80
2022/11/12 10:38:01;;;;;;;1.33;0.80;;;19.10;62.30;;;;;;5019272;28;20537;-81
2022/11/12 10:40:29;;;;;;;2.20;0.80;;;19.50;60.60;;;;;;5036838;28;20112;-80
2022/11/12 10:43:00;;;;;;;2.00;0.73;;;20.00;58.90;;;;;;5019040;28;20025;-80
2022/11/12 10:45:26;;;;;;;2.28;1.10;;;20.30;57.50;;;;;;5019065;28;20330;-79
2022/11/12 10:47:52;;;;;;;2.17;0.85;;;20.60;56.90;;;;;;5036629;28;20561;-80
2022/11/12 10:50:23;;;;;;;4.68;1.67;;;20.90;55.10;;;;;;5036400;28;20113;-80
2022/11/12 10:53:01;;;;;;;1.17;0.82;;;21.20;54.30;;;;;;5036182;28;20029;-79
2022/11/12 10:55:33;;;;;;;2.35;1.15;;;21.10;53.30;;;;;;5036526;28;20018;-79
2022/11/12 10:58:10;;;;;;;3.15;0.90;;;20.90;54.10;;;;;;5018430;28;20034;-79
2022/11/12 11:00:58;;;;;;;1.73;0.98;;;21.10;53.70;;;;;;5036532;28;20030;-79
2022/11/12 11:03:25;;;;;;;1.52;1.10;;;21.70;52.60;;;;;;5017791;28;20486;-79
2022/11/12 11:06:13;;;;;;;2.70;1.20;;;22.00;51.10;;;;;;5036629;28;20060;-79
2022/11/12 11:08:47;;;;;;;4.28;1.17;;;21.90;50.40;;;;;;5004676;28;20451;-80
2022/11/12 11:11:15;;;;;;;1.95;0.93;;;21.90;49.50;;;;;;5018312;28;20033;-79
2022/11/12 11:13:45;;;;;;;3.20;1.45;;;21.70;49.60;;;;;;5018470;28;20025;-79
2022/11/12 11:16:15;;;;;;;1.60;1.17;;;21.70;50.10;;;;;;5018771;28;20037;-79
2022/11/12 11:18:45;;;;;;;2.03;0.85;;;22.00;49.50;;;;;;5036046;28;20034;-79
2022/11/12 11:21:32;;;;;;;1.98;1.10;;;21.70;49.50;;;;;;5036059;28;20029;-80
2022/11/12 11:24:18;;;;;;;0.95;0.75;;;21.60;49.80;;;;;;5018702;28;20068;-79
2022/11/12 11:27:03;;;;;;;2.00;1.05;;;21.70;49.80;;;;;;5035526;28;20033;-79
2022/11/12 11:29:51;;;;;;;1.73;1.08;;;21.70;49.60;;;;;;5035769;28;20047;-79
2022/11/12 11:32:20;;;;;;;3.25;0.95;;;21.50;50.00;;;;;;5025101;28;20042;-79
2022/11/12 11:35:26;;;;;;;2.30;1.17;;;21.70;49.80;;;;;;5035702;28;20389;-79
2022/11/12 11:38:09;;;;;;;1.15;1.05;;;22.00;49.00;;;;;;4976185;28;20077;-79
2022/11/12 11:40:40;;;;;;;1.20;1.10;;;22.60;47.80;;;;;;4998103;28;20026;-79
2022/11/12 11:43:31;;;;;;;2.20;0.95;;;23.00;46.40;;;;;;4998305;28;20030;-79
2022/11/12 11:46:09;;;;;;;1.02;1.00;;;23.20;46.40;;;;;;4998592;28;20026;-78
2022/11/12 11:49:19;;;;;;;1.80;0.93;;;23.00;46.10;;;;;;5015675;28;20080;-78
2022/11/12 11:52:27;;;;;;;1.95;0.90;;;22.90;46.70;;;;;;5011349;28;20042;-78
2022/11/12 11:55:12;;;;;;;1.73;1.10;;;23.20;45.60;;;;;;5015351;28;20034;-78
2022/11/12 11:58:06;;;;;;;0.77;0.77;;;22.90;45.20;;;;;;5015225;28;20537;-78
2022/11/12 12:01:18;;;;;;;2.03;0.85;;;23.00;45.00;;;;;;4986385;28;20046;-78
2022/11/12 12:04:19;;;;;;;3.30;1.17;;;22.90;45.60;;;;;;5004419;28;20041;-59
2022/11/12 12:07:08;;;;;;;1.38;0.80;;;23.40;46.40;;;;;;5015501;28;20034;-58
2022/11/12 12:09:50;;;;;;;1.80;0.80;;;23.10;45.30;;;;;;5015327;28;20048;-59
2022/11/12 12:12:25;;;;;;;1.67;0.90;;;22.40;45.70;;;;;;5014983;28;20121;-58
2022/11/12 12:15:20;;;;;;;2.47;0.93;;;21.90;46.60;;;;;;5015434;28;20022;-58
2022/11/12 12:18:06;;;;;;;0.95;0.80;;;21.90;47.30;;;;;;5015161;28;20489;-58
2022/11/12 12:20:47;;;;;;;3.28;1.00;;;21.60;47.00;;;;;;5015117;28;20104;-59
2022/11/12 12:23:33;;;;;;;1.23;0.88;;;21.60;48.00;;;;;;4997502;28;20038;-58
2022/11/12 12:26:01;;;;;;;3.33;1.13;;;21.80;47.70;;;;;;5015114;28;20026;-58
2022/11/12 12:28:36;;;;;;;1.55;0.90;;;21.70;47.60;;;;;;5015050;28;20537;-59
2022/11/12 12:31:09;;;;;;;2.67;1.10;;;21.60;49.30;;;;;;4997900;28;20030;-59
2022/11/12 12:33:51;;;;;;;0.75;0.70;;;21.90;48.00;;;;;;5014730;28;20022;-58
2022/11/12 12:36:40;;;;;;;1.48;0.90;;;21.70;48.40;;;;;;5003977;28;20149;-58
2022/11/12 12:39:42;;;;;;;1.98;1.20;;;21.50;49.50;;;;;;5014874;28;20112;-58
2022/11/12 12:42:24;;;;;;;1.92;1.20;;;21.10;50.50;;;;;;4995731;28;20100;-58
2022/11/12 12:45:00;;;;;;;7.15;1.80;;;20.70;52.10;;;;;;5014683;28;20080;-59
2022/11/12 12:47:30;;;;;;;3.38;1.52;;;20.50;52.60;;;;;;5014973;28;20029;-75
2022/11/12 12:49:59;;;;;;;1.33;1.23;;;20.80;52.90;;;;;;5013303;28;20052;-75
2022/11/12 12:52:24;;;;;;;;;;;21.20;52.00;;;;;;5013542;28;20128;-61
2022/11/12 12:54:50;;;;;;;3.55;1.23;;;21.00;52.20;;;;;;5014338;28;20016;-61
2022/11/12 12:57:44;;;;;;;4.47;1.48;;;20.90;53.30;;;;;;5014494;28;20446;-62
2022/11/12 13:00:35;;;;;;;5.43;1.30;;;21.10;52.80;;;;;;5014999;28;20030;-75
2022/11/12 13:03:01;;;;;;;3.05;1.30;;;21.00;53.00;;;;;;5013236;28;20401;-76
2022/11/12 13:05:39;;;;;;;5.00;1.45;;;20.80;53.80;;;;;;5014156;28;20026;-77
2022/11/12 13:08:17;;;;;;;6.60;1.20;;;20.70;53.90;;;;;;5014381;28;20092;-77
2022/11/12 13:10:44;;;;;;;6.68;1.45;;;20.60;55.60;;;;;;5014654;28;20061;-77
2022/11/12 13:13:18;;;;;;;5.68;2.15;;;20.60;54.20;;;;;;5014260;28;20423;-77
2022/11/12 13:15:52;;;;;;;4.30;1.70;;;20.70;54.90;;;;;;5012870;28;20029;-77
2022/11/12 13:18:36;;;;;;;3.78;1.55;;;21.30;53.80;;;;;;5013474;28;20033;-77
2022/11/12 13:21:14;;;;;;;2.90;1.50;;;21.50;53.80;;;;;;5012440;28;20033;-77
2022/11/12 13:24:05;;;;;;;2.45;1.38;;;21.60;53.30;;;;;;5013081;28;20033;-76
2022/11/12 13:26:52;;;;;;;2.88;1.60;;;21.10;53.70;;;;;;5013652;28;20057;-78
2022/11/12 13:29:38;;;;;;;5.93;1.70;;;20.80;53.20;;;;;;5013057;28;20025;-77
2022/11/12 13:32:36;;;;;;;2.17;1.40;;;20.00;53.80;;;;;;5014453;28;20034;-77
2022/11/12 13:35:10;;;;;;;2.20;1.38;;;19.00;57.20;;;;;;5012804;28;20029;-77
2022/11/12 13:37:57;;;;;;;3.85;1.38;;;18.30;57.90;;;;;;5012612;28;20077;-77
2022/11/12 13:40:29;;;;;;;2.53;1.58;;;17.80;58.80;;;;;;5013887;28;20096;-77
2022/11/12 13:43:35;;;;;;;2.75;1.10;;;17.20;60.50;;;;;;5014233;28;20033;-77
2022/11/12 13:46:22;;;;;;;2.25;1.67;;;16.60;64.50;;;;;;5008491;28;20371;-77
2022/11/12 13:49:02;;;;;;;4.00;1.65;;;16.20;65.50;;;;;;5012618;28;20069;-77
2022/11/12 13:51:30;;;;;;;2.83;1.50;;;15.80;67.80;;;;;;5012647;28;20120;-77
2022/11/12 13:53:56;;;;;;;4.20;1.50;;;15.50;68.50;;;;;;5013567;28;20379;-78
2022/11/12 13:56:27;;;;;;;3.15;1.63;;;15.20;67.90;;;;;;5012468;28;20037;-77
2022/11/12 13:58:53;;;;;;;3.22;1.38;;;15.00;70.20;;;;;;5014115;28;20026;-77
2022/11/12 14:01:21;;;;;;;1.85;1.42;;;14.80;71.50;;;;;;5013076;28;20454;-77
2022/11/12 14:03:50;;;;;;;1.33;1.15;;;14.40;72.90;;;;;;5012579;28;20025;-77
2022/11/12 14:06:37;;;;;;;2.78;1.33;;;14.20;74.00;;;;;;5013440;28;20434;-77
2022/11/12 14:09:32;;;;;;;2.85;1.20;;;13.90;74.90;;;;;;5013748;28;20057;-77
2022/11/12 14:12:03;;;;;;;3.75;1.40;;;13.70;73.90;;;;;;5006114;28;20046;-78
2022/11/12 14:14:47;;;;;;;3.97;1.42;;;13.60;76.30;;;;;;5013901;28;20038;-78
2022/11/12 14:17:28;;;;;;;3.63;1.33;;;13.50;75.80;;;;;;5012564;28;20382;-77
2022/11/12 14:19:59;;;;;;;2.35;1.30;;;13.40;78.40;;;;;;5013933;28;20050;-77
2022/11/12 14:22:34;;;;;;;6.00;1.40;;;13.20;79.20;;;;;;5013822;28;20100;-78